createdAt,value
2019-04-04T03:52:24.704Z,59.89
2019-04-04T03:54:56.500Z,59.98
2019-04-04T03:57:27.301Z,59.52
2019-04-04T03:59:57.770Z,58.81
2019-04-04T04:02:28.324Z,58.47
2019-04-04T04:05:00.887Z,57.95
2019-04-04T04:07:31.267Z,57.53
2019-04-04T04:10:02.423Z,57.22
2019-04-04T04:12:33.141Z,57.08
2019-04-04T04:15:04.640Z,57.02
2019-04-04T04:17:36.410Z,56.83
2019-04-04T04:20:07.104Z,56.74
2019-04-04T04:22:37.624Z,56.80
2019-04-04T04:25:08.343Z,56.78
2019-04-04T04:27:39.090Z,56.80
2019-04-04T04:30:09.630Z,56.83
2019-04-04T04:32:40.274Z,56.50
2019-04-04T04:35:10.845Z,56.43
2019-04-04T04:37:42.593Z,56.15
2019-04-04T04:40:14.946Z,56.21
2019-04-04T04:42:45.459Z,55.87
2019-04-04T04:45:16.091Z,55.91
2019-04-04T04:47:46.654Z,55.73
2019-04-04T04:50:17.151Z,55.56
2019-04-04T04:52:47.757Z,55.40
2019-04-04T04:55:18.315Z,55.25
2019-04-04T04:57:48.953Z,54.85
2019-04-04T05:00:19.585Z,54.46
2019-04-04T05:02:52.794Z,54.43
2019-04-04T05:05:22.527Z,54.14
2019-04-04T05:07:54.886Z,53.82
2019-04-04T05:10:25.308Z,53.64
2019-04-04T05:12:56.027Z,53.11
2019-04-04T05:15:26.581Z,52.27
2019-04-04T05:17:57.151Z,51.48
2019-04-04T05:20:29.869Z,48.05
2019-04-04T05:23:00.202Z,45.98
2019-04-04T05:25:31.812Z,44.43
2019-04-04T05:28:06.115Z,42.75
2019-04-04T05:30:35.806Z,41.19
2019-04-04T05:33:06.357Z,40.45
2019-04-04T05:35:37.995Z,38.59
2019-04-04T05:38:12.223Z,36.58
2019-04-04T05:40:40.980Z,35.37
2019-04-04T05:43:14.731Z,36.39
2019-04-04T05:45:45.231Z,32.47
2019-04-04T05:48:16.166Z,30.27
2019-04-04T05:50:46.727Z,28.87
2019-04-04T05:53:17.242Z,26.10
2019-04-04T05:55:47.753Z,25.68
2019-04-04T05:58:21.786Z,25.97
2019-04-04T06:00:50.746Z,24.90
2019-04-04T06:03:21.389Z,24.13
2019-04-04T06:05:52.160Z,23.81
2019-04-04T06:08:23.788Z,24.25
2019-04-04T06:10:54.360Z,25.33
2019-04-04T06:13:25.039Z,25.48
2019-04-04T06:15:57.322Z,24.28
2019-04-04T06:18:27.852Z,27.89
2019-04-04T06:20:58.481Z,29.98
2019-04-04T06:23:29.125Z,31.93
2019-04-04T06:25:59.682Z,34.41
2019-04-04T06:28:30.382Z,36.11
2019-04-04T06:31:01.021Z,37.38
2019-04-04T06:33:33.076Z,37.66
2019-04-04T06:36:04.035Z,37.94
2019-04-04T06:38:34.706Z,37.90
2019-04-04T06:41:05.305Z,38.01
2019-04-04T06:43:35.884Z,38.38
2019-04-04T06:46:06.561Z,37.76
2019-04-04T06:48:37.270Z,37.95
2019-04-04T06:51:07.937Z,37.94
2019-04-04T06:53:38.571Z,37.93
2019-04-04T06:56:09.198Z,37.99
2019-04-04T06:58:40.697Z,37.24
2019-04-04T07:01:11.410Z,37.72
2019-04-04T07:03:42.326Z,37.45
2019-04-04T07:06:12.889Z,37.57
2019-04-04T07:08:45.136Z,37.51
2019-04-04T07:11:21.390Z,37.38
2019-04-04T07:13:48.343Z,37.27
2019-04-04T07:16:19.077Z,36.98
2019-04-04T07:18:49.546Z,37.26
2019-04-04T07:21:20.690Z,36.69
2019-04-04T07:23:51.461Z,36.97
2019-04-04T07:26:23.060Z,36.82
2019-04-04T07:28:54.112Z,36.50
2019-04-04T07:31:24.901Z,36.44
2019-04-04T07:33:55.558Z,36.48
2019-04-04T07:36:26.126Z,36.12
2019-04-04T07:38:58.180Z,36.01
2019-04-04T07:41:29.045Z,35.87
2019-04-04T07:43:59.732Z,36.28
2019-04-04T07:46:30.469Z,36.08
2019-04-04T07:49:01.113Z,35.95
2019-04-04T07:51:31.735Z,35.66
2019-04-04T07:54:02.372Z,35.99
2019-04-04T07:56:33.000Z,35.76
2019-04-04T07:59:03.765Z,36.13
2019-04-04T08:01:34.301Z,35.71
2019-04-04T08:04:06.667Z,35.83
2019-04-04T08:06:37.501Z,35.80
2019-04-04T08:09:08.758Z,35.79
2019-04-04T08:11:39.357Z,35.30
2019-04-04T08:14:09.934Z,35.32
2019-04-04T08:16:41.971Z,35.32
2019-04-04T08:19:12.544Z,35.08
2019-04-04T08:21:43.320Z,34.98
2019-04-04T08:24:13.855Z,34.34
2019-04-04T08:26:44.395Z,34.40
2019-04-04T08:29:15.034Z,34.10
2019-04-04T08:31:45.755Z,34.10
2019-04-04T08:34:16.392Z,33.80
2019-04-04T08:36:47.026Z,33.96
2019-04-04T08:39:17.764Z,33.83
2019-04-04T08:41:48.398Z,33.79
2019-04-04T08:44:18.928Z,33.70
2019-04-04T08:46:49.680Z,33.78
2019-04-04T08:49:20.293Z,34.23
2019-04-04T08:51:50.924Z,33.59
2019-04-04T08:54:21.508Z,33.44
2019-04-04T08:56:53.380Z,33.36
2019-04-04T08:59:24.056Z,33.29
2019-04-04T09:01:54.789Z,33.42
2019-04-04T09:04:25.353Z,33.41
2019-04-04T09:06:56.076Z,33.58
2019-04-04T09:09:26.829Z,33.51
2019-04-04T09:11:57.529Z,33.43
2019-04-04T09:14:28.281Z,33.76
2019-04-04T09:16:58.897Z,33.41
2019-04-04T09:19:29.427Z,32.74
2019-04-04T09:22:00.193Z,33.01
2019-04-04T09:24:30.864Z,33.18
2019-04-04T09:27:01.491Z,33.30
2019-04-04T09:29:33.931Z,32.80
2019-04-04T09:32:04.641Z,32.60
2019-04-04T09:34:35.210Z,32.69
2019-04-04T09:37:08.697Z,32.31
2019-04-04T09:39:40.274Z,32.12
2019-04-04T09:42:11.369Z,31.10
2019-04-04T09:44:41.848Z,31.47
2019-04-04T09:47:12.545Z,31.08
2019-04-04T09:49:43.076Z,31.53
2019-04-04T09:52:13.707Z,31.84
2019-04-04T09:54:44.237Z,32.34
2019-04-04T09:57:14.862Z,31.60
2019-04-04T09:59:46.008Z,31.60
2019-04-04T10:02:16.553Z,31.53
2019-04-04T10:04:47.125Z,31.54
2019-04-04T10:07:17.812Z,31.40
2019-04-04T10:09:48.439Z,31.30
2019-04-04T10:12:19.077Z,31.43
2019-04-04T10:14:49.641Z,30.94
2019-04-04T10:17:20.216Z,30.72
2019-04-04T10:19:50.673Z,30.91
2019-04-04T10:22:21.305Z,30.78
2019-04-04T10:24:51.933Z,30.32
2019-04-04T10:27:22.573Z,31.09
2019-04-04T10:29:53.204Z,30.95
2019-04-04T10:32:23.833Z,30.64
2019-04-04T10:34:54.572Z,30.71
2019-04-04T10:37:25.128Z,31.09
2019-04-04T10:39:55.683Z,30.30
2019-04-04T10:42:26.376Z,29.80
2019-04-04T10:44:56.908Z,29.85
2019-04-04T10:47:27.535Z,29.76
2019-04-04T10:50:54.409Z,30.00
2019-04-04T10:53:25.124Z,29.75
2019-04-04T10:55:55.578Z,29.82
2019-04-04T10:58:26.183Z,29.69
2019-04-04T11:00:58.044Z,29.66
2019-04-04T11:03:28.616Z,28.95
2019-04-04T11:05:59.082Z,29.19
2019-04-04T11:08:29.692Z,28.92
2019-04-04T11:11:00.474Z,28.52
2019-04-04T11:13:33.808Z,28.73
2019-04-04T11:16:04.413Z,28.68
2019-04-04T11:18:35.280Z,28.55
2019-04-04T11:21:05.913Z,28.58
2019-04-04T11:23:36.504Z,28.34
2019-04-04T11:26:07.150Z,28.34
2019-04-04T11:28:37.680Z,28.32
2019-04-04T11:31:08.245Z,28.39
2019-04-04T11:33:38.948Z,28.36
2019-04-04T11:36:09.680Z,28.97
2019-04-04T11:38:44.082Z,28.99
2019-04-04T11:41:14.123Z,28.42
2019-04-04T11:43:44.747Z,27.84
2019-04-04T11:46:15.390Z,28.09
2019-04-04T11:48:46.020Z,28.07
2019-04-04T11:51:16.662Z,28.43
2019-04-04T11:53:47.222Z,28.37
2019-04-04T11:56:17.824Z,28.28
